Time;durP1;ratioP1;P1;durP2;ratioP2;P2;SDS_P1;SDS_P2;PMS_P1;PMS_P2;Temp;Humidity;BMP_temperature;BMP_pressure;BME280_temperature;BME280_humidity;BME280_pressure;Samples;Min_cycle;Max_cycle;Signal;HPM_P1;HPM_P2
2024/04/13 00:01:30;;;;;;;3.85;2.08;;;17.90;81.40;;;;;;4469870;26;20073;-48
2024/04/13 00:04:13;;;;;;;6.75;2.47;;;17.80;82.40;;;;;;4470445;26;20011;-47
2024/04/13 00:06:53;;;;;;;2.63;2.00;;;17.80;81.40;;;;;;4489988;26;20009;-43
2024/04/13 00:09:36;;;;;;;1.77;1.55;;;17.80;81.20;;;;;;4494476;26;20026;-44
2024/04/13 00:12:22;;;;;;;2.83;1.90;;;17.80;81.20;;;;;;4469577;26;20019;-44
2024/04/13 00:15:04;;;;;;;1.70;1.60;;;17.80;81.30;;;;;;4470609;26;20445;-44
2024/04/13 00:17:47;;;;;;;3.78;2.00;;;17.80;81.50;;;;;;4496559;26;20076;-44
2024/04/13 00:20:28;;;;;;;3.92;1.70;;;17.80;81.50;;;;;;4499317;26;20453;-45
2024/04/13 00:23:10;;;;;;;4.75;2.03;;;17.80;81.50;;;;;;4499386;26;20018;-47
2024/04/13 00:25:51;;;;;;;4.22;1.73;;;17.80;81.60;;;;;;4498742;26;20018;-47
2024/04/13 00:28:36;;;;;;;6.95;1.60;;;17.80;81.70;;;;;;4499688;26;20043;-42
2024/04/13 00:31:16;;;;;;;3.17;1.58;;;17.80;81.70;;;;;;4469505;26;20018;-45
2024/04/13 00:33:59;;;;;;;3.13;1.55;;;17.80;81.90;;;;;;4462303;26;20015;-46
2024/04/13 00:36:40;;;;;;;2.80;1.48;;;17.70;81.80;;;;;;4493299;26;20071;-45
2024/04/13 00:39:23;;;;;;;5.47;1.58;;;17.80;82.60;;;;;;4494186;26;20027;-45
2024/04/13 00:42:06;;;;;;;2.15;1.33;;;17.70;81.80;;;;;;4470265;26;20014;-46
2024/04/13 00:45:01;;;;;;;4.43;1.40;;;17.70;81.80;;;;;;4472975;26;20454;-46
2024/04/13 00:47:42;;;;;;;2.50;1.50;;;17.70;81.60;;;;;;4471198;26;20018;-49
2024/04/13 00:50:30;;;;;;;3.67;1.67;;;17.70;81.80;;;;;;4492295;26;20075;-44
2024/04/13 00:53:13;;;;;;;2.92;1.83;;;17.70;81.80;;;;;;4500654;26;20042;-47
2024/04/13 00:56:00;;;;;;;2.92;1.50;;;17.70;81.70;;;;;;4485810;26;20022;-52
2024/04/13 00:58:42;;;;;;;2.88;1.20;;;17.70;82.50;;;;;;4473308;26;20438;-51
2024/04/13 01:01:28;;;;;;;3.08;1.45;;;17.70;81.70;;;;;;4473197;26;20052;-49
2024/04/13 01:04:09;;;;;;;3.00;1.70;;;17.70;81.90;;;;;;4479810;26;20022;-54
2024/04/13 01:06:53;;;;;;;3.42;1.60;;;17.70;81.90;;;;;;4501119;26;20009;-52
2024/04/13 01:09:33;;;;;;;2.95;1.13;;;17.70;81.90;;;;;;4472348;26;20022;-50
2024/04/13 01:12:17;;;;;;;5.30;1.50;;;17.70;81.90;;;;;;4471849;26;20018;-51
2024/04/13 01:14:57;;;;;;;3.50;1.55;;;17.70;81.90;;;;;;4474339;26;20017;-50
2024/04/13 01:17:43;;;;;;;3.17;1.60;;;17.70;81.80;;;;;;4473115;26;20075;-54
2024/04/13 01:20:23;;;;;;;1.77;1.27;;;17.70;81.80;;;;;;4472586;26;20101;-52
2024/04/13 01:23:11;;;;;;;2.38;1.60;;;17.70;81.80;;;;;;4472535;26;20453;-43
2024/04/13 01:25:56;;;;;;;2.10;1.48;;;17.60;81.80;;;;;;4491090;26;20445;-45
2024/04/13 01:28:39;;;;;;;5.18;1.67;;;17.70;82.10;;;;;;4481877;26;20023;-43
2024/04/13 01:31:21;;;;;;;2.85;1.67;;;17.70;82.10;;;;;;4470221;26;20019;-44
2024/04/13 01:34:04;;;;;;;1.65;1.55;;;17.60;82.00;;;;;;4471764;26;20014;-44
2024/04/13 01:36:45;;;;;;;5.13;1.52;;;17.60;82.00;;;;;;4472223;26;20080;-45
2024/04/13 01:39:28;;;;;;;4.20;1.50;;;17.70;82.10;;;;;;4469592;26;20449;-45
2024/04/13 01:42:11;;;;;;;4.95;1.65;;;17.60;81.80;;;;;;4516151;26;20329;-45
2024/04/13 01:44:54;;;;;;;2.08;1.42;;;17.60;81.80;;;;;;4484396;26;20079;-47
2024/04/13 01:47:35;;;;;;;2.33;1.52;;;17.60;81.80;;;;;;4498950;26;20053;-42
2024/04/13 01:50:18;;;;;;;1.15;1.02;;;17.60;81.80;;;;;;4501603;26;20017;-42
2024/04/13 01:52:58;;;;;;;4.43;1.52;;;17.60;82.00;;;;;;4501293;26;20444;-47
2024/04/13 01:55:41;;;;;;;3.28;1.30;;;17.60;82.00;;;;;;4477236;26;20082;-43
2024/04/13 01:58:24;;;;;;;3.45;2.22;;;17.60;81.90;;;;;;4472141;26;20017;-48
2024/04/13 02:01:07;;;;;;;1.92;1.67;;;17.60;81.80;;;;;;4471728;26;20076;-45
2024/04/13 02:03:47;;;;;;;3.78;1.20;;;17.60;82.00;;;;;;4495461;26;20468;-43
2024/04/13 02:06:30;;;;;;;2.45;1.38;;;17.60;82.10;;;;;;4472196;26;20018;-46
2024/04/13 02:09:13;;;;;;;2.45;1.50;;;17.60;82.10;;;;;;4484588;26;20092;-44
2024/04/13 02:11:55;;;;;;;3.38;1.35;;;17.60;82.30;;;;;;4501212;26;20022;-46
2024/04/13 02:14:38;;;;;;;3.65;1.45;;;17.60;82.10;;;;;;4487232;26;20073;-45
2024/04/13 02:17:21;;;;;;;5.75;1.42;;;17.60;82.10;;;;;;4471776;26;20470;-43
2024/04/13 02:20:01;;;;;;;8.77;1.63;;;17.60;82.30;;;;;;4471608;26;20013;-45
2024/04/13 02:22:44;;;;;;;3.83;1.40;;;17.60;82.30;;;;;;4475636;26;20013;-42
2024/04/13 02:25:24;;;;;;;4.40;1.98;;;17.60;82.30;;;;;;4472405;26;20050;-44
2024/04/13 02:28:09;;;;;;;3.65;1.30;;;17.60;83.20;;;;;;4471493;26;20018;-44
2024/04/13 02:30:52;;;;;;;3.08;1.35;;;17.50;82.40;;;;;;4471814;26;20081;-47
2024/04/13 02:33:35;;;;;;;4.78;1.55;;;17.60;82.30;;;;;;4470184;26;20072;-44
2024/04/13 02:36:15;;;;;;;3.83;1.42;;;17.50;82.50;;;;;;4471636;26;20079;-44
2024/04/13 02:38:58;;;;;;;4.38;1.30;;;17.50;82.50;;;;;;4471769;26;20014;-44
2024/04/13 02:41:39;;;;;;;3.15;1.33;;;17.50;82.50;;;;;;4471003;26;20018;-45
2024/04/13 02:44:22;;;;;;;4.53;1.70;;;17.50;82.50;;;;;;4471903;26;20014;-44
2024/04/13 02:47:05;;;;;;;2.42;1.30;;;17.50;82.50;;;;;;4466446;26;20089;-44
2024/04/13 02:49:48;;;;;;;2.03;1.30;;;17.50;82.50;;;;;;4470888;26;20081;-46
2024/04/13 02:52:28;;;;;;;5.43;1.70;;;17.50;82.60;;;;;;4467231;26;20373;-44
2024/04/13 02:55:12;;;;;;;1.80;1.50;;;17.50;82.60;;;;;;4477289;26;20010;-45
2024/04/13 02:57:52;;;;;;;5.35;1.70;;;17.50;82.60;;;;;;4473853;26;20014;-44
2024/04/13 03:00:35;;;;;;;2.92;1.30;;;17.50;83.50;;;;;;4500575;26;20072;-48
2024/04/13 03:03:19;;;;;;;2.15;1.50;;;17.50;82.80;;;;;;4500935;26;20025;-44
2024/04/13 03:06:03;;;;;;;3.20;1.95;;;17.50;82.70;;;;;;4499126;26;20018;-47
2024/04/13 03:08:44;;;;;;;6.05;1.60;;;17.50;82.70;;;;;;4499333;26;20017;-45
2024/04/13 03:11:27;;;;;;;2.50;1.27;;;17.50;82.70;;;;;;4500396;26;20064;-51
2024/04/13 03:14:07;;;;;;;4.65;1.90;;;17.50;83.60;;;;;;4484849;26;20330;-52
2024/04/13 03:16:50;;;;;;;2.45;1.67;;;17.50;82.70;;;;;;4470972;26;20017;-54
2024/04/13 03:19:32;;;;;;;2.47;1.63;;;17.50;82.80;;;;;;4469779;26;20022;-50
2024/04/13 03:22:15;;;;;;;3.65;1.50;;;17.50;82.70;;;;;;4467342;26;20117;-53
2024/04/13 03:24:56;;;;;;;4.55;1.73;;;17.50;82.70;;;;;;4471335;26;20023;-52
2024/04/13 03:27:39;;;;;;;;;;;17.40;82.70;;;;;;4499215;26;20006;-54
2024/04/13 03:30:19;;;;;;;4.68;1.98;;;17.40;82.70;;;;;;4497964;26;19931;-51
2024/04/13 03:33:02;;;;;;;4.90;1.70;;;17.40;83.00;;;;;;4500790;26;20014;-50
2024/04/13 03:35:45;;;;;;;6.07;1.70;;;17.40;82.80;;;;;;4499685;26;20086;-51
2024/04/13 03:38:28;;;;;;;6.93;2.10;;;17.40;82.80;;;;;;4498636;26;20075;-51
2024/04/13 03:41:11;;;;;;;7.45;1.95;;;17.40;82.80;;;;;;4500513;26;20039;-54
2024/04/13 03:43:54;;;;;;;6.57;2.00;;;17.40;82.80;;;;;;4498427;26;20017;-51
2024/04/13 03:46:34;;;;;;;3.67;1.92;;;17.40;82.80;;;;;;4495145;26;20017;-53
2024/04/13 03:49:18;;;;;;;7.18;1.80;;;17.40;82.80;;;;;;4499929;26;20077;-53
2024/04/13 03:52:01;;;;;;;6.20;1.83;;;17.40;82.90;;;;;;4499940;26;20790;-52
2024/04/13 03:54:44;;;;;;;6.35;1.92;;;17.40;82.90;;;;;;4499932;26;20802;-49
2024/04/13 03:57:24;;;;;;;7.10;2.08;;;17.40;82.90;;;;;;4500109;26;20333;-52
2024/04/13 04:00:08;;;;;;;10.68;2.30;;;17.40;83.00;;;;;;4498426;26;20016;-49
2024/04/13 04:02:56;;;;;;;8.13;1.80;;;17.40;82.90;;;;;;4471315;26;20018;-54
2024/04/13 04:05:39;;;;;;;7.75;2.13;;;17.40;83.00;;;;;;4470099;26;20010;-53
2024/04/13 04:08:22;;;;;;;4.30;1.85;;;17.40;83.10;;;;;;4468767;26;20044;-54
2024/04/13 04:11:05;;;;;;;5.63;1.83;;;17.40;83.00;;;;;;4464444;26;20395;-53
2024/04/13 04:13:46;;;;;;;6.82;2.00;;;17.40;83.10;;;;;;4469677;26;20018;-52
2024/04/13 04:16:28;;;;;;;4.07;1.88;;;17.30;83.00;;;;;;4470312;26;20015;-50
2024/04/13 04:19:09;;;;;;;3.08;1.67;;;17.30;83.00;;;;;;4498367;26;20017;-54
2024/04/13 04:21:53;;;;;;;5.20;2.10;;;17.30;83.00;;;;;;4476687;26;20009;-51
2024/04/13 04:24:37;;;;;;;6.47;2.05;;;17.30;83.10;;;;;;4472584;26;20018;-52
2024/04/13 04:27:20;;;;;;;6.03;2.20;;;17.30;82.90;;;;;;4473182;26;20018;-51
2024/04/13 04:30:03;;;;;;;5.70;1.95;;;17.30;82.90;;;;;;4473067;26;20392;-54
2024/04/13 04:32:43;;;;;;;8.77;2.28;;;17.30;83.10;;;;;;4481692;26;20056;-53
2024/04/13 04:35:26;;;;;;;6.47;1.73;;;17.30;83.20;;;;;;4500558;26;20014;-54
2024/04/13 04:38:06;;;;;;;5.47;2.20;;;17.30;83.10;;;;;;4502581;26;20017;-51
2024/04/13 04:40:53;;;;;;;4.45;1.75;;;17.30;83.10;;;;;;4502123;26;20048;-53
2024/04/13 04:43:34;;;;;;;7.60;1.90;;;17.30;83.00;;;;;;4501604;26;20013;-53
2024/04/13 04:46:17;;;;;;;5.72;1.88;;;17.20;83.10;;;;;;4502332;26;20083;-51
2024/04/13 04:48:57;;;;;;;7.03;2.33;;;17.20;84.10;;;;;;4484095;26;20453;-52
2024/04/13 04:51:40;;;;;;;4.85;1.98;;;17.30;83.20;;;;;;4496849;26;20354;-53
2024/04/13 04:54:23;;;;;;;6.53;2.25;;;17.20;83.10;;;;;;4502070;26;20039;-52
2024/04/13 04:57:06;;;;;;;3.88;1.98;;;17.20;83.20;;;;;;4501884;26;20021;-44
2024/04/13 04:59:49;;;;;;;5.53;2.08;;;17.20;84.10;;;;;;4502718;26;20385;-46
2024/04/13 05:02:30;;;;;;;6.80;2.08;;;17.20;83.40;;;;;;4480399;26;20018;-46
2024/04/13 05:05:13;;;;;;;7.88;1.85;;;17.20;83.50;;;;;;4472732;26;20048;-50
2024/04/13 05:07:53;;;;;;;5.55;2.10;;;17.20;83.40;;;;;;4472382;26;20022;-49
2024/04/13 05:10:37;;;;;;;5.72;1.90;;;17.20;83.30;;;;;;4475553;26;20084;-52
2024/04/13 05:13:20;;;;;;;6.25;1.90;;;17.20;83.20;;;;;;4496703;26;20017;-49
2024/04/13 05:16:05;;;;;;;7.75;1.92;;;17.20;83.10;;;;;;4489891;26;20018;-53
2024/04/13 05:18:45;;;;;;;7.78;1.70;;;17.20;83.10;;;;;;4477934;26;20026;-49
2024/04/13 05:21:28;;;;;;;4.57;1.67;;;17.20;83.20;;;;;;4476703;26;20014;-49
2024/04/13 05:24:11;;;;;;;6.55;2.00;;;17.30;83.40;;;;;;4472085;26;20018;-55
2024/04/13 05:26:55;;;;;;;18.02;2.60;;;17.20;83.20;;;;;;4472623;26;20033;-52
2024/04/13 05:29:41;;;;;;;9.07;2.97;;;17.20;83.30;;;;;;4474523;26;20009;-51
2024/04/13 05:32:21;;;;;;;8.45;2.22;;;17.20;84.00;;;;;;4501969;26;20021;-50
2024/04/13 05:35:04;;;;;;;7.90;2.80;;;17.30;84.00;;;;;;4492784;26;20085;-43
2024/04/13 05:37:45;;;;;;;8.75;2.45;;;17.30;83.90;;;;;;4491663;26;20076;-42
2024/04/13 05:40:28;;;;;;;6.05;1.70;;;17.30;83.70;;;;;;4488493;26;20077;-51
2024/04/13 05:43:08;;;;;;;6.63;2.00;;;17.30;83.70;;;;;;4470528;26;20014;-52
2024/04/13 05:45:57;;;;;;;9.60;2.45;;;17.30;84.70;;;;;;4471436;26;20018;-50
2024/04/13 05:48:37;;;;;;;5.40;1.73;;;17.20;83.70;;;;;;4471887;26;20338;-43
2024/04/13 05:51:20;;;;;;;6.93;2.22;;;17.30;83.80;;;;;;4471117;26;20040;-46
2024/04/13 05:54:00;;;;;;;8.80;2.33;;;17.30;83.80;;;;;;4500139;26;20075;-46
2024/04/13 05:56:43;;;;;;;7.78;2.05;;;17.30;83.70;;;;;;4490106;26;20010;-44
2024/04/13 05:59:23;;;;;;;5.35;1.65;;;17.30;83.60;;;;;;4469304;26;20018;-47
2024/04/13 06:02:09;;;;;;;5.32;2.10;;;17.30;83.40;;;;;;4470088;26;20089;-43
2024/04/13 06:04:51;;;;;;;12.55;3.05;;;17.30;83.30;;;;;;4483134;26;20090;-44
2024/04/13 06:07:32;;;;;;;6.30;2.38;;;17.20;83.30;;;;;;4501354;26;20017;-54
2024/04/13 06:10:15;;;;;;;7.97;2.17;;;17.30;83.50;;;;;;4490543;26;20013;-54
2024/04/13 06:12:55;;;;;;;11.43;2.20;;;17.30;83.40;;;;;;4501051;26;20018;-51
2024/04/13 06:15:40;;;;;;;5.30;2.58;;;17.30;83.50;;;;;;4501269;26;20018;-49
2024/04/13 06:18:23;;;;;;;7.05;2.17;;;17.30;83.60;;;;;;4500778;26;20010;-51
2024/04/13 06:21:06;;;;;;;8.82;2.17;;;17.30;84.00;;;;;;4501432;26;20079;-49
2024/04/13 06:23:47;;;;;;;4.68;1.95;;;17.30;84.00;;;;;;4501007;26;20083;-54
2024/04/13 06:26:29;;;;;;;9.27;2.10;;;17.30;84.00;;;;;;4473919;26;20018;-50
2024/04/13 06:29:10;;;;;;;7.75;2.20;;;17.30;83.90;;;;;;4470071;26;20014;-53
2024/04/13 06:31:53;;;;;;;10.57;2.72;;;17.40;83.70;;;;;;4471536;26;20023;-50
2024/04/13 06:34:38;;;;;;;6.10;1.98;;;17.40;83.70;;;;;;4471726;26;20438;-52
2024/04/13 06:37:19;;;;;;;4.80;2.47;;;17.40;83.60;;;;;;4471225;26;20072;-55
2024/04/13 06:40:03;;;;;;;7.25;2.45;;;17.40;83.40;;;;;;4480800;26;20017;-51
2024/04/13 06:42:46;;;;;;;10.35;2.50;;;17.40;83.30;;;;;;4499516;26;20014;-51
2024/04/13 06:45:27;;;;;;;4.30;1.23;;;17.40;83.20;;;;;;4501342;26;20014;-54
2024/04/13 06:48:10;;;;;;;8.32;2.63;;;17.50;83.10;;;;;;4498576;26;20009;-53
2024/04/13 06:50:53;;;;;;;2.65;1.90;;;17.50;82.90;;;;;;4471717;26;20018;-51
2024/04/13 06:53:39;;;;;;;34.53;2.60;;;17.40;82.60;;;;;;4470935;26;20078;-44
2024/04/13 06:56:19;;;;;;;4.82;1.88;;;17.40;82.50;;;;;;4471208;26;20089;-48
2024/04/13 06:59:02;;;;;;;6.65;2.10;;;17.40;82.30;;;;;;4471654;26;20018;-46
2024/04/13 07:01:42;;;;;;;7.90;2.00;;;17.50;82.40;;;;;;4500995;26;20009;-45
2024/04/13 07:04:25;;;;;;;9.85;2.33;;;17.50;82.20;;;;;;4497576;26;20365;-47
2024/04/13 07:07:08;;;;;;;11.55;2.13;;;17.50;82.00;;;;;;4500658;26;20020;-47
2024/04/13 07:09:51;;;;;;;8.27;2.30;;;17.50;81.70;;;;;;4500667;26;20021;-50
2024/04/13 07:12:32;;;;;;;10.93;2.28;;;17.60;81.50;;;;;;4485217;26;20013;-48
2024/04/13 07:15:15;;;;;;;8.02;2.55;;;17.60;81.20;;;;;;4500454;26;20461;-48
2024/04/13 07:17:56;;;;;;;5.70;2.03;;;17.60;81.00;;;;;;4498804;26;20008;-51
2024/04/13 07:20:39;;;;;;;13.88;2.33;;;17.70;81.10;;;;;;4495839;26;20009;-47
2024/04/13 07:23:22;;;;;;;7.93;2.22;;;17.70;80.80;;;;;;4499602;26;20017;-45
2024/04/13 07:26:06;;;;;;;8.15;2.25;;;17.80;81.60;;;;;;4489233;26;20018;-44
2024/04/13 07:28:46;;;;;;;6.13;2.30;;;17.70;80.60;;;;;;4491046;26;20017;-45
2024/04/13 07:31:28;;;;;;;11.52;3.05;;;17.80;80.50;;;;;;4499818;26;20017;-52
2024/04/13 07:34:09;;;;;;;7.70;2.10;;;17.80;80.40;;;;;;4468899;26;20418;-53
2024/04/13 07:36:51;;;;;;;6.13;2.53;;;17.80;80.40;;;;;;4500217;26;20009;-51
2024/04/13 07:39:37;;;;;;;8.13;2.33;;;17.80;80.30;;;;;;4482493;26;20331;-50
2024/04/13 07:42:20;;;;;;;4.10;1.77;;;17.80;80.30;;;;;;4500318;26;20013;-53
2024/04/13 07:45:00;;;;;;;7.68;2.53;;;17.80;80.20;;;;;;4497620;26;20010;-48
2024/04/13 07:47:43;;;;;;;4.70;2.08;;;17.80;80.10;;;;;;4480621;26;20077;-50
2024/04/13 07:50:24;;;;;;;6.22;2.25;;;17.90;81.10;;;;;;4470452;26;20014;-48
2024/04/13 07:53:07;;;;;;;8.05;2.10;;;18.00;81.50;;;;;;4473665;26;20017;-49
2024/04/13 07:55:50;;;;;;;7.00;2.70;;;18.00;80.70;;;;;;4473178;26;20069;-56
2024/04/13 07:58:33;;;;;;;5.50;2.22;;;18.00;80.90;;;;;;4483917;26;20373;-56
2024/04/13 08:01:16;;;;;;;7.35;2.08;;;18.00;81.30;;;;;;4500937;26;20338;-56
2024/04/13 08:03:55;;;;;;;6.82;1.92;;;18.10;81.50;;;;;;4502897;26;20017;-56
2024/04/13 08:06:39;;;;;;;6.97;2.20;;;18.10;81.20;;;;;;4487480;26;20076;-56
2024/04/13 08:09:19;;;;;;;5.60;2.13;;;18.10;81.20;;;;;;4473175;26;20050;-55
2024/04/13 08:12:05;;;;;;;6.15;1.48;;;18.20;82.00;;;;;;4489757;26;20321;-54
2024/04/13 08:14:45;;;;;;;12.10;2.80;;;18.20;81.00;;;;;;4495710;26;20018;-56
2024/04/13 08:17:29;;;;;;;5.30;2.10;;;18.20;80.40;;;;;;4480891;26;20017;-55
2024/04/13 08:20:09;;;;;;;7.35;2.25;;;18.30;80.10;;;;;;4502499;26;20076;-54
2024/04/13 08:22:52;;;;;;;5.00;1.52;;;18.30;80.00;;;;;;4493035;26;20013;-54
2024/04/13 08:25:32;;;;;;;10.32;2.60;;;18.40;79.90;;;;;;4475450;26;20014;-54
2024/04/13 08:28:18;;;;;;;8.37;2.73;;;18.40;79.80;;;;;;4479858;26;20019;-52
2024/04/13 08:31:03;;;;;;;5.07;2.10;;;18.40;79.60;;;;;;4470851;26;20084;-54
2024/04/13 08:33:46;;;;;;;9.63;2.55;;;18.40;79.50;;;;;;4486220;26;20019;-52
2024/04/13 08:36:28;;;;;;;5.57;2.05;;;18.50;79.50;;;;;;4486442;26;20009;-48
2024/04/13 08:39:12;;;;;;;5.38;1.70;;;18.50;79.60;;;;;;4498609;26;20087;-49
2024/04/13 08:42:03;;;;;;;6.45;2.13;;;18.50;80.30;;;;;;4502702;26;20013;-50
2024/04/13 08:44:54;;;;;;;6.35;2.35;;;18.60;80.30;;;;;;4502267;26;20079;-49
2024/04/13 08:47:35;;;;;;;9.82;2.60;;;18.60;79.80;;;;;;4483526;26;20080;-53
2024/04/13 08:50:18;;;;;;;;;;;18.70;79.60;;;;;;4471585;26;20022;-53
2024/04/13 08:52:59;;;;;;;7.80;2.47;;;18.70;79.30;;;;;;4472606;26;19955;-55
2024/04/13 08:55:42;;;;;;;7.18;2.25;;;18.80;79.30;;;;;;4472377;26;20073;-51
2024/04/13 08:58:23;;;;;;;4.57;1.55;;;18.80;79.30;;;;;;4472592;26;20076;-53
2024/04/13 09:01:15;;;;;;;11.90;2.58;;;18.90;79.70;;;;;;4471771;26;20415;-51
2024/04/13 09:03:57;;;;;;;9.85;2.38;;;18.90;79.60;;;;;;4471320;26;20100;-50
2024/04/13 09:06:43;;;;;;;5.13;2.10;;;19.00;79.40;;;;;;4469635;26;20068;-53
2024/04/13 09:09:25;;;;;;;5.93;2.60;;;19.00;79.10;;;;;;4472814;26;20019;-54
2024/04/13 09:12:09;;;;;;;6.28;1.60;;;19.00;79.20;;;;;;4482312;26;20014;-51
2024/04/13 09:14:49;;;;;;;5.88;2.70;;;19.00;79.80;;;;;;4492446;26;20014;-50
2024/04/13 09:17:35;;;;;;;5.97;2.05;;;19.10;79.70;;;;;;4495585;26;20014;-50
2024/04/13 09:20:16;;;;;;;4.53;1.77;;;19.10;79.20;;;;;;4497465;26;20018;-53
2024/04/13 09:23:00;;;;;;;3.40;1.33;;;19.20;79.50;;;;;;4496283;26;20014;-51
2024/04/13 09:25:40;;;;;;;8.30;2.20;;;19.20;79.60;;;;;;4497433;26;20049;-49
2024/04/13 09:28:23;;;;;;;3.13;1.75;;;19.20;79.00;;;;;;4498027;26;20013;-52
2024/04/13 09:31:04;;;;;;;6.32;2.70;;;19.20;79.00;;;;;;4496158;26;20044;-51
2024/04/13 09:33:52;;;;;;;9.13;1.88;;;19.20;78.50;;;;;;4497813;26;20795;-49
2024/04/13 09:36:33;;;;;;;5.60;2.00;;;19.10;79.00;;;;;;4497249;26;20080;-52
2024/04/13 09:39:25;;;;;;;7.25;2.83;;;19.20;79.40;;;;;;4494944;26;20370;-52
2024/04/13 09:42:09;;;;;;;7.60;2.15;;;19.20;80.00;;;;;;4496392;26;20031;-51
2024/04/13 09:44:52;;;;;;;8.20;2.75;;;19.20;79.90;;;;;;4494777;26;20133;-48
2024/04/13 09:47:32;;;;;;;7.07;2.03;;;19.20;79.30;;;;;;4497862;26;20026;-51
2024/04/13 09:50:18;;;;;;;8.82;2.30;;;19.20;80.00;;;;;;4496755;26;20470;-53
2024/04/13 09:53:01;;;;;;;5.32;1.98;;;19.20;80.30;;;;;;4496805;26;20017;-53
2024/04/13 09:55:44;;;;;;;5.50;2.88;;;19.20;80.60;;;;;;4495456;26;20017;-54
2024/04/13 09:58:25;;;;;;;7.10;2.17;;;19.20;80.50;;;;;;4495953;26;20017;-56
2024/04/13 10:01:09;;;;;;;2.97;1.70;;;19.20;80.50;;;;;;4491631;26;20010;-55
2024/04/13 10:03:49;;;;;;;5.63;2.88;;;19.30;80.70;;;;;;4496609;26;20032;-56
2024/04/13 10:06:36;;;;;;;5.95;2.90;;;19.30;80.90;;;;;;4497592;26;20017;-55
2024/04/13 10:09:22;;;;;;;11.98;3.78;;;19.30;80.80;;;;;;4491752;26;20083;-46
2024/04/13 10:12:03;;;;;;;3.58;2.50;;;19.30;80.70;;;;;;4497403;26;20373;-53
2024/04/13 10:14:48;;;;;;;4.88;2.63;;;19.30;80.60;;;;;;4498250;26;20039;-49
2024/04/13 10:17:30;;;;;;;5.85;2.85;;;19.30;80.10;;;;;;4496393;26;20018;-50
2024/04/13 10:20:13;;;;;;;6.20;3.25;;;19.40;79.80;;;;;;4496729;26;20034;-46
2024/04/13 10:22:58;;;;;;;8.02;3.22;;;19.40;79.80;;;;;;4496151;26;20456;-52
2024/04/13 10:25:41;;;;;;;3.40;2.42;;;19.40;79.80;;;;;;4514979;26;20078;-47
2024/04/13 10:28:21;;;;;;;8.65;3.53;;;19.40;79.50;;;;;;4497614;26;20012;-49
2024/04/13 10:31:05;;;;;;;5.85;2.67;;;19.40;79.50;;;;;;4497082;26;20013;-51
2024/04/13 10:33:55;;;;;;;2.33;2.05;;;19.50;79.70;;;;;;4496685;26;20014;-50
2024/04/13 10:36:40;;;;;;;2.60;1.85;;;19.50;79.70;;;;;;4477576;26;20045;-48
2024/04/13 10:39:23;;;;;;;2.30;2.10;;;19.50;79.60;;;;;;4496079;26;20010;-47
2024/04/13 10:42:13;;;;;;;4.63;2.47;;;19.50;79.50;;;;;;4495158;26;20012;-49
2024/04/13 10:44:54;;;;;;;2.40;2.08;;;19.50;79.40;;;;;;4495705;26;20079;-49
2024/04/13 10:47:39;;;;;;;4.57;2.03;;;19.50;79.40;;;;;;4496633;26;20021;-48
2024/04/13 10:50:22;;;;;;;2.40;2.20;;;19.60;79.00;;;;;;4483731;26;20014;-53
2024/04/13 10:53:03;;;;;;;3.10;1.90;;;19.50;78.80;;;;;;4497584;26;20084;-53
2024/04/13 10:55:49;;;;;;;6.80;2.17;;;19.60;78.90;;;;;;4495995;26;20192;-47
2024/04/13 10:58:32;;;;;;;3.35;1.90;;;19.60;78.60;;;;;;4491171;26;20014;-49
2024/04/13 11:01:15;;;;;;;2.17;1.67;;;19.60;78.40;;;;;;4497416;26;20017;-50
2024/04/13 11:04:03;;;;;;;3.15;2.40;;;19.60;79.20;;;;;;4495614;26;20017;-47
2024/04/13 11:06:46;;;;;;;1.85;1.65;;;19.60;78.20;;;;;;4491928;26;20091;-53
2024/04/13 11:09:29;;;;;;;3.72;1.95;;;19.60;78.20;;;;;;4496020;26;21107;-50
2024/04/13 11:12:15;;;;;;;3.58;1.75;;;19.60;78.10;;;;;;4492884;26;20047;-46
2024/04/13 11:14:55;;;;;;;3.42;1.77;;;19.60;78.10;;;;;;4496851;26;20341;-51
2024/04/13 11:17:38;;;;;;;2.85;1.70;;;19.70;78.10;;;;;;4495498;26;20013;-51
2024/04/13 11:20:21;;;;;;;2.33;1.77;;;19.60;78.90;;;;;;4493007;26;20010;-49
2024/04/13 11:23:03;;;;;;;1.35;1.25;;;19.60;78.00;;;;;;4494368;26;21134;-48
2024/04/13 11:25:46;;;;;;;7.15;1.67;;;19.70;78.00;;;;;;4491150;26;20448;-50
2024/04/13 11:28:30;;;;;;;4.13;1.90;;;19.70;77.80;;;;;;4497076;26;20096;-51
2024/04/13 11:31:13;;;;;;;7.70;2.30;;;19.70;77.70;;;;;;4493871;26;20014;-48
2024/04/13 11:33:53;;;;;;;10.75;2.95;;;19.70;77.70;;;;;;4496650;26;20051;-48
2024/04/13 11:36:36;;;;;;;5.13;2.03;;;19.70;77.60;;;;;;4496690;26;20039;-51
2024/04/13 11:39:19;;;;;;;2.05;1.65;;;19.70;77.50;;;;;;4495812;26;20260;-47
2024/04/13 11:42:06;;;;;;;3.08;1.73;;;19.80;77.50;;;;;;4486325;26;20104;-49
2024/04/13 11:44:49;;;;;;;1.70;1.55;;;19.70;77.40;;;;;;4495854;26;20441;-48
2024/04/13 11:47:33;;;;;;;4.00;1.58;;;19.80;77.30;;;;;;4496605;26;20009;-49
2024/04/13 11:50:13;;;;;;;4.72;2.72;;;19.80;77.40;;;;;;4494228;26;20384;-49
2024/04/13 11:52:56;;;;;;;2.83;2.17;;;19.80;77.40;;;;;;4515756;26;20072;-50
2024/04/13 11:55:37;;;;;;;4.32;2.05;;;19.80;77.30;;;;;;4494915;26;20017;-50
2024/04/13 11:58:24;;;;;;;3.38;3.08;;;19.80;77.90;;;;;;4490519;26;20025;-47
2024/04/13 12:01:06;;;;;;;8.10;2.70;;;19.80;77.00;;;;;;4496472;26;20013;-52
2024/04/13 12:03:49;;;;;;;4.40;1.67;;;19.90;76.90;;;;;;4490919;26;20346;-51
2024/04/13 12:06:32;;;;;;;5.55;2.88;;;19.90;76.80;;;;;;4511220;26;20006;-48
2024/04/13 12:09:12;;;;;;;6.43;3.47;;;19.90;76.80;;;;;;4495919;26;20097;-47
2024/04/13 12:11:55;;;;;;;2.05;1.75;;;19.90;76.90;;;;;;4492900;26;20013;-47
2024/04/13 12:14:38;;;;;;;3.90;2.50;;;19.90;77.00;;;;;;4490686;26;20366;-50
2024/04/13 12:17:28;;;;;;;7.35;2.55;;;19.90;76.90;;;;;;4492058;26;20076;-48
2024/04/13 12:20:09;;;;;;;4.25;1.65;;;19.90;76.90;;;;;;4493406;26;20088;-52
2024/04/13 12:22:52;;;;;;;3.88;2.15;;;20.00;76.80;;;;;;4494083;26;20071;-47
2024/04/13 12:25:32;;;;;;;5.80;2.33;;;20.00;76.70;;;;;;4492820;26;20013;-56
2024/04/13 12:28:14;;;;;;;3.30;2.30;;;20.00;76.70;;;;;;4495198;26;20431;-55
2024/04/13 12:30:55;;;;;;;2.88;2.58;;;20.00;76.80;;;;;;4493559;26;20010;-56
2024/04/13 12:33:41;;;;;;;3.70;2.58;;;20.00;76.70;;;;;;4496039;26;20544;-56
2024/04/13 12:36:22;;;;;;;4.32;3.00;;;20.00;76.70;;;;;;4490880;26;20052;-53
2024/04/13 12:39:09;;;;;;;7.00;2.53;;;20.00;76.90;;;;;;4497635;26;20053;-49
2024/04/13 12:41:50;;;;;;;2.50;2.30;;;20.00;77.00;;;;;;4498882;26;20136;-50
2024/04/13 12:44:33;;;;;;;3.13;1.95;;;20.10;77.10;;;;;;4498857;26;20043;-49
2024/04/13 12:47:14;;;;;;;3.80;1.63;;;20.10;77.00;;;;;;4498829;26;20154;-47
2024/04/13 12:49:59;;;;;;;2.92;1.65;;;20.00;76.80;;;;;;4497738;26;20014;-49
2024/04/13 12:52:39;;;;;;;2.90;1.55;;;20.00;77.00;;;;;;4496391;26;20076;-55
2024/04/13 12:55:22;;;;;;;5.43;2.60;;;20.10;77.20;;;;;;4498444;26;20013;-54
2024/04/13 12:58:02;;;;;;;6.25;3.33;;;20.00;77.40;;;;;;4497596;26;20047;-56
2024/04/13 13:00:45;;;;;;;2.57;2.37;;;20.10;77.60;;;;;;4496468;26;20010;-52
2024/04/13 13:03:26;;;;;;;4.63;2.72;;;20.10;77.30;;;;;;4497218;26;20265;-54
2024/04/13 13:06:13;;;;;;;3.25;1.70;;;20.10;77.30;;;;;;4498645;26;20009;-53
2024/04/13 13:08:53;;;;;;;4.93;2.10;;;20.10;77.50;;;;;;4498493;26;20518;-47
2024/04/13 13:11:36;;;;;;;4.20;2.60;;;20.10;77.50;;;;;;4498678;26;20042;-47
2024/04/13 13:14:16;;;;;;;2.38;1.70;;;20.10;77.40;;;;;;4498376;26;20072;-49
2024/04/13 13:16:59;;;;;;;3.60;2.67;;;20.10;77.60;;;;;;4497239;26;20071;-51
2024/04/13 13:19:39;;;;;;;5.82;2.80;;;20.10;77.40;;;;;;4474855;26;20464;-51
2024/04/13 13:22:25;;;;;;;2.83;1.50;;;20.10;77.50;;;;;;4495085;26;20067;-49
2024/04/13 13:25:05;;;;;;;4.80;3.17;;;20.20;77.80;;;;;;4497442;26;20076;-49
2024/04/13 13:27:49;;;;;;;5.97;2.80;;;20.20;78.00;;;;;;4497267;26;20017;-50
2024/04/13 13:30:34;;;;;;;4.47;3.70;;;20.20;78.10;;;;;;4497083;26;20076;-47
2024/04/13 13:33:17;;;;;;;5.07;2.10;;;20.20;78.00;;;;;;4498440;26;20075;-48
2024/04/13 13:35:57;;;;;;;6.28;3.33;;;20.30;78.20;;;;;;4496856;26;20013;-49
2024/04/13 13:38:43;;;;;;;5.10;3.92;;;20.30;78.30;;;;;;4497315;26;20495;-51
2024/04/13 13:41:24;;;;;;;3.35;2.15;;;20.30;78.50;;;;;;4498320;26;20009;-49
2024/04/13 13:44:09;;;;;;;4.45;3.53;;;20.30;78.40;;;;;;4497333;26;20091;-50
2024/04/13 13:46:50;;;;;;;3.40;1.88;;;20.30;78.50;;;;;;4497742;26;20475;-49
2024/04/13 13:49:33;;;;;;;6.30;2.97;;;20.30;78.60;;;;;;4497127;26;20014;-51
2024/04/13 13:52:14;;;;;;;1.83;1.65;;;20.30;78.60;;;;;;4497601;26;20377;-49
2024/04/13 13:55:00;;;;;;;3.67;3.35;;;20.40;78.70;;;;;;4496439;26;20075;-47
2024/04/13 13:57:41;;;;;;;5.85;4.13;;;20.40;79.70;;;;;;4497361;26;20013;-48
2024/04/13 14:00:24;;;;;;;4.07;3.33;;;20.40;78.90;;;;;;4497738;26;20043;-46
2024/04/13 14:03:05;;;;;;;7.03;4.40;;;20.50;79.10;;;;;;4492542;26;20017;-47
2024/04/13 14:05:48;;;;;;;4.88;3.33;;;20.50;79.10;;;;;;4496753;26;20079;-56
2024/04/13 14:08:30;;;;;;;4.97;4.22;;;20.50;79.20;;;;;;4497312;26;20017;-55